Time;durP1;ratioP1;P1;durP2;ratioP2;P2;SDS_P1;SDS_P2;PMS_P1;PMS_P2;Temp;Humidity;BMP_temperature;BMP_pressure;BME280_temperature;BME280_humidity;BME280_pressure;Samples;Min_cycle;Max_cycle;Signal;HPM_P1;HPM_P2
2021/11/24 14:53:30;;;;;;;;;78.80;64.60;;;;;;;;6297025;22;9719;-80
2021/11/24 15:15:06;;;;;;;;;83.00;67.50;;;;;;;;6102663;23;8771;-81
2021/11/24 15:18:05;;;;;;;;;;;;;;;;;;;;;
2021/11/24 17:56:52;;;;;;;;;98.75;87.00;;;;;;;;6250808;22;8765;-81
2021/11/24 17:59:18;;;;;;;;;91.40;80.00;;;;;;;;6257660;22;8849;-81
2021/11/24 18:02:06;;;;;;;;;92.20;79.80;;;;;;;;6285808;22;8951;-81
2021/11/24 18:04:36;;;;;;;;;85.60;70.60;;;;;;;;6286854;22;8742;-82
2021/11/24 18:07:04;;;;;;;;;101.50;96.75;;;;;;;;6314720;22;9603;-82
2021/11/24 18:09:29;;;;;;;;;99.80;89.40;;;;;;;;6415816;22;8725;-81
2021/11/24 18:11:55;;;;;;;;;97.25;90.75;;;;;;;;6415935;22;8779;-81
2021/11/24 18:14:22;;;;;;;;;88.00;72.67;;;;;;;;6415693;22;8733;-81
2021/11/24 18:16:51;;;;;;;;;81.40;65.20;;;;;;;;6415368;22;11440;-81
2021/11/24 18:24:58;;;;;;;;;75.00;62.00;;;;;;;;6398616;22;8736;-82
2021/11/24 18:27:25;;;;;;;;;90.60;79.80;;;;;;;;6416867;22;8699;-81
2021/11/24 18:29:51;;;;;;;;;96.25;88.75;;;;;;;;6416920;22;8845;-82
2021/11/24 18:32:16;;;;;;;;;80.25;64.75;;;;;;;;6387981;22;8753;-81
2021/11/24 18:34:44;;;;;;;;;78.75;63.00;;;;;;;;6388194;22;8926;-81
2021/11/24 18:37:09;;;;;;;;;79.50;63.75;;;;;;;;6387951;22;8736;-81
2021/11/24 18:39:35;;;;;;;;;78.67;62.33;;;;;;;;6417199;22;8863;-81
2021/11/24 18:42:00;;;;;;;;;82.00;67.25;;;;;;;;6386915;22;10069;-81
2021/11/24 18:44:29;;;;;;;;;80.00;63.50;;;;;;;;6416782;22;8888;-81
2021/11/24 18:47:28;;;;;;;;;74.50;61.00;;;;;;;;6416686;22;8717;-81
2021/11/24 18:50:36;;;;;;;;;;;;;;;;;;;;;
2021/11/24 18:57:04;;;;;;;;;72.00;58.00;;;;;;;;6218069;22;11514;-81
2021/11/24 19:06:47;;;;;;;;;;;;;;;;;;;;;
2021/11/24 19:12:16;;;;;;;;;72.00;57.50;;;;;;;;6285429;22;8746;-80
2021/11/24 19:14:42;;;;;;;;;82.00;66.00;;;;;;;;6345891;22;9302;-80
2021/11/24 19:17:13;;;;;;;;;83.25;66.50;;;;;;;;6416163;22;8830;-80
2021/11/24 19:19:38;;;;;;;;;76.75;62.00;;;;;;;;6387703;22;11505;-80
2021/11/24 19:22:04;;;;;;;;;85.00;70.25;;;;;;;;6387389;22;8796;-80
2021/11/24 19:24:31;;;;;;;;;87.00;72.75;;;;;;;;6388072;22;8777;-80
2021/11/24 19:26:57;;;;;;;;;85.00;70.50;;;;;;;;6416567;22;8851;-79
2021/11/24 19:29:24;;;;;;;;;87.50;73.00;;;;;;;;6416334;22;8756;-79
2021/11/24 19:31:50;;;;;;;;;76.25;61.00;;;;;;;;6416675;22;8725;-79
2021/11/24 19:34:18;;;;;;;;;84.25;68.25;;;;;;;;6387023;22;8860;-80
2021/11/24 19:36:43;;;;;;;;;74.00;58.00;;;;;;;;6416965;22;8740;-79
2021/11/24 19:39:09;;;;;;;;;88.67;75.00;;;;;;;;6387483;22;8748;-79
2021/11/24 19:41:37;;;;;;;;;85.50;72.00;;;;;;;;6416293;22;8781;-80
2021/11/24 19:44:16;;;;;;;;;88.00;74.50;;;;;;;;6387684;22;8697;-80
2021/11/24 19:46:44;;;;;;;;;77.75;62.00;;;;;;;;6416754;22;8717;-79
2021/11/24 19:49:16;;;;;;;;;81.80;66.20;;;;;;;;6415980;22;8740;-80
2021/11/24 19:51:44;;;;;;;;;83.25;65.50;;;;;;;;6416425;22;8751;-80
2021/11/24 19:54:40;;;;;;;;;;;;;;;;;;;;;
2021/11/24 19:57:12;;;;;;;;;78.50;65.00;;;;;;;;6414800;22;35268;-80
2021/11/24 19:59:37;;;;;;;;;89.50;73.50;;;;;;;;6387621;22;11485;-80
2021/11/24 20:02:07;;;;;;;;;85.00;67.00;;;;;;;;6416500;22;8795;-80
2021/11/24 20:04:32;;;;;;;;;83.80;68.40;;;;;;;;6416276;22;8749;-80
2021/11/24 20:06:58;;;;;;;;;86.50;69.75;;;;;;;;6387498;22;8745;-79
2021/11/24 20:09:24;;;;;;;;;84.00;67.50;;;;;;;;6416360;22;8740;-79
2021/11/24 20:11:49;;;;;;;;;84.50;66.50;;;;;;;;6416168;22;8701;-80
2021/11/24 20:14:15;;;;;;;;;84.00;67.00;;;;;;;;6387243;22;9533;-81
2021/11/24 20:16:47;;;;;;;;;81.00;65.50;;;;;;;;6387479;22;8756;-80
2021/11/24 20:19:12;;;;;;;;;82.25;66.25;;;;;;;;6386821;22;11511;-80
2021/11/24 20:21:38;;;;;;;;;88.25;73.00;;;;;;;;6416232;22;8835;-80
2021/11/24 20:24:04;;;;;;;;;91.50;75.75;;;;;;;;6416151;22;8729;-80
2021/11/24 20:26:29;;;;;;;;;80.00;63.75;;;;;;;;6387877;22;9564;-81
2021/11/24 20:28:55;;;;;;;;;85.00;64.25;;;;;;;;6387333;22;8830;-81
2021/11/24 20:31:28;;;;;;;;;86.00;70.50;;;;;;;;6416742;22;9539;-80
2021/11/24 20:37:35;;;;;;;;;;;;;;;;;;;;;
2021/11/24 20:40:14;;;;;;;;;91.75;79.50;;;;;;;;6404483;22;36139;-81
2021/11/24 20:42:58;;;;;;;;;68.00;55.75;;;;;;;;6415765;22;12445;-81
2021/11/24 20:48:33;;;;;;;;;;;;;;;;;;;;;
2021/11/24 20:50:59;;;;;;;;;96.00;87.40;;;;;;;;6414627;22;35955;-80
2021/11/24 20:53:25;;;;;;;;;83.75;68.00;;;;;;;;6416489;22;8759;-80
2021/11/24 20:55:50;;;;;;;;;78.75;63.00;;;;;;;;6387628;22;8843;-80
2021/11/24 20:58:16;;;;;;;;;91.25;76.75;;;;;;;;6386747;22;8745;-79
2021/11/24 21:00:42;;;;;;;;;88.00;72.75;;;;;;;;6416438;22;8741;-79
2021/11/24 21:03:07;;;;;;;;;87.80;72.60;;;;;;;;6415132;22;8829;-79
2021/11/24 21:05:33;;;;;;;;;81.75;64.50;;;;;;;;6387167;22;8757;-80
2021/11/24 21:07:58;;;;;;;;;88.50;73.75;;;;;;;;6415684;22;8845;-80
2021/11/24 21:10:24;;;;;;;;;91.75;73.25;;;;;;;;6361313;22;8782;-80
2021/11/24 21:12:49;;;;;;;;;89.75;76.75;;;;;;;;6387395;22;8749;-80
2021/11/24 21:15:15;;;;;;;;;88.50;71.25;;;;;;;;6416330;22;8779;-80
2021/11/24 21:17:42;;;;;;;;;80.00;64.00;;;;;;;;6415934;22;8824;-81
2021/11/24 21:20:08;;;;;;;;;87.67;72.67;;;;;;;;6416082;22;8709;-81
2021/11/24 21:22:34;;;;;;;;;71.75;57.75;;;;;;;;6416098;22;11512;-81
2021/11/24 21:25:08;;;;;;;;;83.75;67.00;;;;;;;;6415942;22;11412;-81
2021/11/24 21:27:33;;;;;;;;;82.67;67.00;;;;;;;;6416346;22;8721;-81
2021/11/24 21:29:59;;;;;;;;;82.75;66.25;;;;;;;;6415996;22;11602;-81
2021/11/24 21:32:25;;;;;;;;;85.75;67.75;;;;;;;;6415620;22;8733;-80
2021/11/24 21:34:50;;;;;;;;;94.00;84.67;;;;;;;;6416360;22;8713;-81
2021/11/24 21:37:16;;;;;;;;;86.00;67.33;;;;;;;;6415866;22;9325;-80
2021/11/24 21:39:41;;;;;;;;;88.00;72.33;;;;;;;;6387211;22;8793;-81
2021/11/24 21:42:07;;;;;;;;;82.33;65.67;;;;;;;;6415293;22;8807;-81
2021/11/24 21:44:44;;;;;;;;;89.00;74.50;;;;;;;;6387759;22;8745;-81
2021/11/24 21:47:19;;;;;;;;;84.75;69.75;;;;;;;;6415265;22;9573;-80
2021/11/24 21:49:46;;;;;;;;;85.20;69.60;;;;;;;;6415952;22;8736;-81
2021/11/24 21:52:12;;;;;;;;;87.20;71.80;;;;;;;;6415645;22;8749;-80
2021/11/24 21:54:37;;;;;;;;;84.00;69.25;;;;;;;;6415816;22;8733;-79
2021/11/24 21:57:03;;;;;;;;;82.75;65.00;;;;;;;;6386389;22;8736;-80
2021/11/24 21:59:28;;;;;;;;;81.50;65.75;;;;;;;;6415960;22;8737;-79
2021/11/24 22:01:53;;;;;;;;;83.25;68.25;;;;;;;;6415707;22;8941;-79
2021/11/24 22:04:19;;;;;;;;;89.00;72.25;;;;;;;;6415774;22;8757;-79
2021/11/24 22:12:09;;;;;;;;;77.75;62.75;;;;;;;;6415130;22;8729;-79
2021/11/24 22:14:35;;;;;;;;;79.00;63.75;;;;;;;;6415854;22;9303;-79
2021/11/24 22:17:05;;;;;;;;;90.00;73.75;;;;;;;;6415498;22;8737;-80
2021/11/24 22:19:30;;;;;;;;;91.40;75.20;;;;;;;;6415837;22;8805;-79
2021/11/24 22:21:55;;;;;;;;;70.67;58.67;;;;;;;;6415005;22;8772;-80
2021/11/24 22:24:21;;;;;;;;;84.00;68.67;;;;;;;;6416175;22;8756;-80
2021/11/24 22:26:46;;;;;;;;;87.33;70.00;;;;;;;;6416005;22;8717;-80
2021/11/24 22:29:11;;;;;;;;;88.25;74.75;;;;;;;;6415536;22;8749;-80
2021/11/24 22:31:38;;;;;;;;;87.50;67.50;;;;;;;;6387194;22;8756;-80
2021/11/24 22:34:03;;;;;;;;;78.75;65.00;;;;;;;;6386801;22;8741;-80
2021/11/24 22:36:29;;;;;;;;;76.67;63.00;;;;;;;;6415759;22;8744;-80
2021/11/24 22:38:54;;;;;;;;;81.75;64.50;;;;;;;;6415460;22;10089;-80
2021/11/24 22:41:19;;;;;;;;;93.75;84.50;;;;;;;;6415204;22;8818;-79
2021/11/24 22:43:45;;;;;;;;;81.00;63.33;;;;;;;;6415526;22;8809;-80
2021/11/24 22:46:12;;;;;;;;;85.75;72.00;;;;;;;;6386857;22;8850;-80
2021/11/24 22:48:38;;;;;;;;;82.00;64.75;;;;;;;;6415464;22;8822;-80
2021/11/24 22:51:03;;;;;;;;;83.33;66.67;;;;;;;;6415196;22;8733;-80
2021/11/24 22:53:28;;;;;;;;;88.67;75.67;;;;;;;;6386545;22;8744;-80
2021/11/24 22:55:54;;;;;;;;;94.00;84.33;;;;;;;;6415422;22;8740;-80
2021/11/24 22:58:19;;;;;;;;;88.67;74.33;;;;;;;;6415237;22;8737;-80
2021/11/24 23:00:44;;;;;;;;;82.33;65.67;;;;;;;;6415662;22;8728;-80
2021/11/24 23:03:10;;;;;;;;;89.00;73.00;;;;;;;;6386342;22;8729;-80
2021/11/24 23:05:38;;;;;;;;;94.50;85.75;;;;;;;;6415428;22;8892;-80
2021/11/24 23:08:07;;;;;;;;;93.50;80.00;;;;;;;;6415153;22;8751;-80
2021/11/24 23:10:33;;;;;;;;;93.25;76.75;;;;;;;;6387222;22;11523;-80
2021/11/24 23:12:58;;;;;;;;;89.25;74.75;;;;;;;;6416991;22;8709;-80
2021/11/24 23:15:24;;;;;;;;;87.75;71.00;;;;;;;;6416768;22;11639;-80
2021/11/24 23:17:49;;;;;;;;;93.50;77.75;;;;;;;;6417190;22;9488;-80
2021/11/24 23:20:14;;;;;;;;;87.33;74.33;;;;;;;;6387600;22;8823;-80
2021/11/24 23:22:40;;;;;;;;;95.25;84.50;;;;;;;;6416925;22;9899;-80
2021/11/24 23:25:05;;;;;;;;;87.00;71.50;;;;;;;;6387665;22;8756;-80
2021/11/24 23:27:31;;;;;;;;;88.75;74.50;;;;;;;;6387682;22;8880;-79
2021/11/24 23:29:56;;;;;;;;;91.00;78.25;;;;;;;;6416554;22;8873;-80
2021/11/24 23:32:22;;;;;;;;;90.75;77.50;;;;;;;;6388145;22;8744;-79
2021/11/24 23:34:47;;;;;;;;;88.75;74.75;;;;;;;;6417108;22;8765;-80
2021/11/24 23:37:13;;;;;;;;;95.00;84.00;;;;;;;;6416978;22;8736;-80
2021/11/24 23:39:40;;;;;;;;;85.67;71.67;;;;;;;;6417008;22;8882;-79
2021/11/24 23:42:06;;;;;;;;;84.00;66.40;;;;;;;;6415706;22;8757;-79
2021/11/24 23:44:31;;;;;;;;;90.25;78.50;;;;;;;;6416890;22;8776;-79
2021/11/24 23:46:57;;;;;;;;;86.67;70.67;;;;;;;;6416410;22;8817;-80
2021/11/24 23:49:22;;;;;;;;;93.75;84.50;;;;;;;;6416888;22;9514;-80
2021/11/24 23:51:48;;;;;;;;;96.00;84.75;;;;;;;;6388150;22;8756;-80
2021/11/24 23:54:13;;;;;;;;;91.25;77.75;;;;;;;;6416496;22;8758;-80
2021/11/24 23:56:38;;;;;;;;;88.67;74.67;;;;;;;;6417162;22;8810;-80
2021/11/24 23:59:04;;;;;;;;;89.00;74.00;;;;;;;;6416528;22;8733;-79
